Time;durP1;ratioP1;P1;durP2;ratioP2;P2;SDS_P1;SDS_P2;PMS_P1;PMS_P2;Temp;Humidity;BMP_temperature;BMP_pressure;BME280_temperature;BME280_humidity;BME280_pressure;Samples;Min_cycle;Max_cycle;Signal;HPM_P1;HPM_P2
2021/12/11 00:01:36;;;;;;;21.63;3.13;;;-0.40;99.90;;;;;;5011004;28;20220;-49
2021/12/11 00:04:03;;;;;;;39.37;5.20;;;-0.20;99.90;;;;;;5010555;28;20223;-49
2021/12/11 00:06:35;;;;;;;43.40;5.73;;;-0.20;99.90;;;;;;5009326;28;20274;-49
2021/12/11 00:09:17;;;;;;;37.27;4.97;;;-0.30;99.90;;;;;;5009985;28;20213;-50
2021/12/11 00:11:45;;;;;;;34.17;4.63;;;-0.30;99.90;;;;;;5010451;28;20221;-50
2021/12/11 00:14:12;;;;;;;19.90;3.07;;;-0.30;99.90;;;;;;5010336;28;20189;-50
2021/12/11 00:16:39;;;;;;;35.00;4.70;;;-0.60;99.90;;;;;;5010980;28;20693;-50
2021/12/11 00:19:13;;;;;;;33.77;4.50;;;-0.40;99.90;;;;;;5010644;28;20681;-50
2021/12/11 00:21:40;;;;;;;40.77;5.47;;;-0.50;99.90;;;;;;5010578;28;20451;-49
2021/12/11 00:24:12;;;;;;;36.33;4.87;;;-0.50;99.90;;;;;;5010146;28;20755;-50
2021/12/11 00:26:42;;;;;;;21.40;3.07;;;-0.70;99.90;;;;;;5010569;28;20748;-50
2021/12/11 00:29:11;;;;;;;33.70;4.67;;;-0.60;99.90;;;;;;5008742;28;20162;-50
2021/12/11 00:31:46;;;;;;;37.23;4.97;;;-0.60;99.90;;;;;;5010811;28;20181;-51
2021/12/11 00:34:14;;;;;;;31.83;4.40;;;-0.50;99.90;;;;;;5010421;28;20211;-49
2021/12/11 00:36:40;;;;;;;30.90;4.20;;;-0.40;99.90;;;;;;5010117;28;20224;-50
2021/12/11 00:39:12;;;;;;;31.47;4.37;;;-0.40;99.90;;;;;;5009894;28;20212;-50
2021/12/11 00:41:38;;;;;;;24.63;3.47;;;-0.60;99.90;;;;;;5010223;28;20988;-50
2021/12/11 00:44:04;;;;;;;47.23;6.27;;;-1.00;99.90;;;;;;5009802;28;20209;-50
2021/12/11 00:46:31;;;;;;;33.97;4.60;;;-0.70;99.90;;;;;;5010680;28;20176;-49
2021/12/11 00:49:18;;;;;;;32.60;4.40;;;-0.80;99.90;;;;;;5010053;28;20219;-49
2021/12/11 00:51:53;;;;;;;33.37;4.57;;;-0.70;99.90;;;;;;5010057;28;20286;-49
2021/12/11 00:54:20;;;;;;;32.53;4.37;;;-0.80;99.90;;;;;;5009921;28;20216;-50
2021/12/11 00:56:47;;;;;;;36.93;4.97;;;-0.60;99.90;;;;;;5009862;28;20230;-49
2021/12/11 00:59:16;;;;;;;33.33;4.67;;;-0.70;99.90;;;;;;5012826;28;20172;-50
2021/12/11 01:01:46;;;;;;;43.00;5.63;;;-0.70;99.90;;;;;;5014582;28;20220;-49
2021/12/11 01:04:19;;;;;;;32.00;4.43;;;-0.50;99.90;;;;;;5014133;28;20227;-49
2021/12/11 01:06:53;;;;;;;38.97;5.23;;;-0.70;99.90;;;;;;5014057;28;20219;-49
2021/12/11 01:09:26;;;;;;;29.97;4.07;;;-0.80;99.90;;;;;;5013927;28;20708;-50
2021/12/11 01:12:07;;;;;;;36.30;4.83;;;-0.70;99.90;;;;;;5013736;28;20216;-49
2021/12/11 01:14:50;;;;;;;31.87;4.37;;;-0.60;99.90;;;;;;5013617;28;20685;-50
2021/12/11 01:17:47;;;;;;;33.93;4.70;;;-0.60;99.90;;;;;;5013932;28;20194;-49
2021/12/11 01:20:23;;;;;;;35.23;4.93;;;-0.60;99.90;;;;;;5013750;28;20165;-49
2021/12/11 01:22:50;;;;;;;38.53;5.10;;;-0.10;99.90;;;;;;5014334;28;20201;-50
2021/12/11 01:25:24;;;;;;;37.20;5.07;;;-0.80;99.90;;;;;;5013018;28;20228;-50
2021/12/11 01:27:53;;;;;;;35.97;4.83;;;-0.80;99.90;;;;;;5013672;28;20808;-50
2021/12/11 01:30:24;;;;;;;34.27;4.53;;;-0.60;99.90;;;;;;5013292;28;20220;-50
2021/12/11 01:32:50;;;;;;;44.83;5.87;;;-0.70;99.90;;;;;;5013464;28;20225;-49
2021/12/11 01:35:17;;;;;;;41.23;5.53;;;-0.90;99.90;;;;;;5013672;28;20664;-50
2021/12/11 01:37:45;;;;;;;33.30;4.47;;;-0.80;99.90;;;;;;5014202;28;20609;-50
2021/12/11 01:40:15;;;;;;;35.70;4.87;;;-0.80;99.90;;;;;;5012933;28;20217;-50
2021/12/11 01:42:42;;;;;;;34.87;4.70;;;-0.90;99.90;;;;;;5013387;28;20629;-50
2021/12/11 01:45:12;;;;;;;43.97;5.77;;;1.80;99.90;;;;;;5012639;28;20216;-50
2021/12/11 01:47:40;;;;;;;42.30;5.60;;;-0.90;99.90;;;;;;5013334;28;20681;-50
2021/12/11 01:50:24;;;;;;;37.73;5.10;;;-0.70;99.90;;;;;;5013234;28;20186;-50
2021/12/11 01:53:32;;;;;;;34.60;4.67;;;-0.80;99.90;;;;;;5013664;28;20215;-49
2021/12/11 01:56:06;;;;;;;36.03;4.73;;;-0.80;99.90;;;;;;4933363;29;20234;-49
2021/12/11 01:58:37;;;;;;;41.73;5.57;;;-1.30;99.90;;;;;;4932796;29;20212;-50
2021/12/11 02:01:26;;;;;;;39.23;5.23;;;-0.70;99.90;;;;;;4977489;28;20288;-49
2021/12/11 02:03:54;;;;;;;35.27;4.80;;;-0.90;99.90;;;;;;5013053;28;20267;-50
2021/12/11 02:06:20;;;;;;;40.03;5.27;;;;;;;;;;5012588;28;20220;-49
2021/12/11 02:08:46;;;;;;;37.47;4.93;;;-0.60;99.90;;;;;;5012613;28;20217;-49
2021/12/11 02:11:20;;;;;;;38.13;5.20;;;-0.50;99.90;;;;;;5012070;28;20548;-49
2021/12/11 02:13:51;;;;;;;34.43;4.70;;;-0.50;99.90;;;;;;5013280;28;20188;-49
2021/12/11 02:16:38;;;;;;;28.50;3.93;;;-0.50;99.90;;;;;;5012814;28;20294;-50
2021/12/11 02:19:10;;;;;;;34.03;4.63;;;-0.60;99.90;;;;;;5012769;28;20216;-50
2021/12/11 02:22:09;;;;;;;35.30;4.73;;;-0.60;99.90;;;;;;5012857;28;20217;-50
2021/12/11 02:24:43;;;;;;;35.87;4.77;;;-0.60;99.90;;;;;;5008081;28;20341;-50
2021/12/11 02:27:23;;;;;;;26.37;3.73;;;-0.50;99.90;;;;;;5012590;28;20221;-50
2021/12/11 02:30:16;;;;;;;36.80;4.93;;;-0.70;99.90;;;;;;5012312;28;20760;-50
2021/12/11 02:32:48;;;;;;;34.13;4.73;;;-0.50;99.90;;;;;;5012621;28;20255;-50
2021/12/11 02:35:37;;;;;;;41.93;5.67;;;-0.50;99.90;;;;;;5012415;28;20164;-50
2021/12/11 02:38:13;;;;;;;32.87;4.43;;;-0.60;99.90;;;;;;5012319;28;20252;-49
2021/12/11 02:40:46;;;;;;;32.67;4.43;;;-0.50;99.90;;;;;;5013255;28;20176;-49
2021/12/11 02:43:11;;;;;;;64.20;8.17;;;;;;;;;;5011491;28;20229;-49
2021/12/11 02:45:46;;;;;;;30.87;4.40;;;-0.90;99.90;;;;;;5012395;28;20220;-50
2021/12/11 02:48:23;;;;;;;32.87;4.43;;;-0.60;99.90;;;;;;5012554;28;20215;-50
2021/12/11 02:50:57;;;;;;;36.53;4.87;;;-0.70;99.90;;;;;;5012077;28;20221;-49
2021/12/11 02:53:30;;;;;;;44.13;5.83;;;-0.80;99.90;;;;;;5011843;28;20220;-50
2021/12/11 02:56:18;;;;;;;38.70;5.23;;;-0.80;99.90;;;;;;5012744;28;20172;-49
2021/12/11 02:58:49;;;;;;;30.27;4.23;;;-0.70;99.90;;;;;;5012066;28;20208;-50
2021/12/11 03:01:23;;;;;;;22.53;3.40;;;-0.80;99.90;;;;;;5012041;28;20311;-50
2021/12/11 03:03:56;;;;;;;42.53;5.67;;;-1.00;99.90;;;;;;5011743;28;20581;-50
2021/12/11 03:06:26;;;;;;;25.33;3.60;;;-0.90;99.90;;;;;;5011984;28;20362;-49
2021/12/11 03:08:54;;;;;;;38.87;5.17;;;-0.80;99.90;;;;;;5011319;28;20240;-49
2021/12/11 03:11:24;;;;;;;32.73;4.40;;;-0.70;99.90;;;;;;5011598;28;20291;-49
2021/12/11 03:13:51;;;;;;;44.97;6.03;;;-0.50;99.90;;;;;;5011693;28;20185;-49
2021/12/11 03:16:26;;;;;;;28.93;4.13;;;-0.70;99.90;;;;;;5011541;28;20402;-51
2021/12/11 03:18:52;;;;;;;30.20;4.13;;;;;;;;;;5011541;28;20208;-50
2021/12/11 03:21:18;;;;;;;40.37;5.43;;;-1.00;99.90;;;;;;5010508;28;20225;-50
2021/12/11 03:23:44;;;;;;;36.00;4.83;;;;;;;;;;5011112;28;20209;-49
2021/12/11 03:26:10;;;;;;;33.50;4.70;;;-0.70;99.90;;;;;;5011483;28;20185;-50
2021/12/11 03:28:36;;;;;;;34.97;4.77;;;-0.50;99.90;;;;;;5011526;28;20169;-50
2021/12/11 03:31:04;;;;;;;38.00;5.10;;;-0.70;99.90;;;;;;5011496;28;20212;-49
2021/12/11 03:33:41;;;;;;;35.03;4.70;;;-0.70;99.90;;;;;;5011163;28;20988;-51
2021/12/11 03:36:10;;;;;;;35.27;4.70;;;-0.80;99.90;;;;;;5011352;28;20217;-50
2021/12/11 03:38:38;;;;;;;47.17;6.23;;;-0.80;99.90;;;;;;5010988;28;20259;-50
2021/12/11 03:41:05;;;;;;;24.63;3.53;;;-0.90;99.90;;;;;;5011196;28;20197;-50
2021/12/11 03:43:31;;;;;;;29.30;4.10;;;-0.70;99.90;;;;;;5011192;28;20173;-50
2021/12/11 03:46:01;;;;;;;39.50;5.30;;;-0.20;99.90;;;;;;5011473;28;20244;-49
2021/12/11 03:48:35;;;;;;;18.50;2.80;;;-0.90;99.90;;;;;;5011138;28;20247;-50
2021/12/11 03:51:06;;;;;;;35.40;4.73;;;-0.80;99.90;;;;;;5011133;28;20212;-49
2021/12/11 03:53:32;;;;;;;17.07;2.60;;;;;;;;;;4993206;28;20296;-50
2021/12/11 03:56:03;;;;;;;35.10;4.63;;;-0.70;99.90;;;;;;5011259;28;20205;-50
2021/12/11 03:58:29;;;;;;;36.90;4.87;;;-0.60;99.90;;;;;;5011196;28;20216;-49
2021/12/11 04:01:07;;;;;;;29.60;4.10;;;-0.90;99.90;;;;;;5010938;28;20581;-49
2021/12/11 04:03:35;;;;;;;37.23;4.87;;;-0.70;99.90;;;;;;5010909;28;20357;-50
2021/12/11 04:06:07;;;;;;;18.90;2.87;;;-0.60;99.90;;;;;;5010906;28;20213;-49
2021/12/11 04:08:42;;;;;;;28.70;3.93;;;-0.40;99.90;;;;;;5010409;28;20220;-50
2021/12/11 04:11:13;;;;;;;41.53;5.53;;;-0.50;99.90;;;;;;5010717;28;20153;-50
2021/12/11 04:13:39;;;;;;;29.27;4.03;;;;;;;;;;5010656;28;20219;-49
2021/12/11 04:16:06;;;;;;;35.00;4.67;;;-0.60;99.90;;;;;;4993045;28;20224;-50
2021/12/11 04:18:32;;;;;;;33.20;4.47;;;;;;;;;;5010805;28;20220;-49
2021/12/11 04:20:58;;;;;;;41.53;5.40;;;-0.60;99.90;;;;;;4992783;28;20212;-49
2021/12/11 04:23:23;;;;;;;42.33;5.63;;;-0.60;99.90;;;;;;5010449;28;20187;-49
2021/12/11 04:25:52;;;;;;;41.67;5.50;;;-0.70;99.90;;;;;;5011044;28;20224;-50
2021/12/11 04:28:20;;;;;;;47.67;6.10;;;-0.90;99.90;;;;;;5009937;28;20208;-49
2021/12/11 04:30:51;;;;;;;42.47;5.70;;;-0.80;99.90;;;;;;5010510;28;20213;-50
2021/12/11 04:33:18;;;;;;;34.63;4.63;;;;;;;;;;5010006;28;20895;-50
2021/12/11 04:35:44;;;;;;;35.27;4.83;;;-0.70;99.90;;;;;;5010318;28;20220;-49
2021/12/11 04:38:12;;;;;;;37.73;5.13;;;-0.80;99.90;;;;;;5010097;28;20212;-49
2021/12/11 04:40:42;;;;;;;39.03;5.13;;;-0.70;99.90;;;;;;5010629;28;20177;-49
2021/12/11 04:43:14;;;;;;;31.77;4.27;;;;;;;;;;5010016;28;20694;-49
2021/12/11 04:45:46;;;;;;;36.13;4.77;;;-0.70;99.90;;;;;;5010393;28;20717;-49
2021/12/11 04:48:23;;;;;;;43.00;5.60;;;-0.90;99.90;;;;;;5010215;28;20255;-49
2021/12/11 04:53:45;;;;;;;47.20;6.10;;;-0.90;99.90;;;;;;5009854;28;20231;-49
2021/12/11 05:01:45;;;;;;;31.13;4.27;;;;;;;;;;5010303;28;20236;-49
2021/12/11 05:11:48;;;;;;;25.00;3.43;;;-1.00;99.90;;;;;;5010114;28;20295;-50
2021/12/11 05:14:17;;;;;;;30.00;4.30;;;-1.10;99.90;;;;;;5010016;28;20165;-50
2021/12/11 05:16:43;;;;;;;31.60;4.33;;;-0.90;99.90;;;;;;5010457;28;20292;-49
2021/12/11 05:19:09;;;;;;;39.60;5.10;;;;;;;;;;5009885;28;20247;-50
2021/12/11 05:21:35;;;;;;;34.30;4.63;;;-1.10;99.90;;;;;;5009946;28;20743;-49
2021/12/11 05:24:03;;;;;;;36.33;4.83;;;-1.30;99.90;;;;;;5009710;28;20252;-50
2021/12/11 05:26:28;;;;;;;33.23;4.47;;;-1.20;99.90;;;;;;5009613;28;20228;-50
2021/12/11 05:28:54;;;;;;;35.73;4.83;;;;;;;;;;5010378;28;20177;-50
2021/12/11 05:31:20;;;;;;;33.97;4.53;;;;;;;;;;5009702;28;20296;-50
2021/12/11 05:33:47;;;;;;;20.20;2.90;;;-1.10;99.90;;;;;;5009756;28;20729;-49
2021/12/11 05:36:17;;;;;;;38.43;5.07;;;-1.30;99.90;;;;;;5009795;28;20256;-49
2021/12/11 05:38:47;;;;;;;46.10;6.00;;;-1.00;99.90;;;;;;5009234;28;20314;-49
2021/12/11 05:41:14;;;;;;;41.03;5.43;;;-1.40;99.90;;;;;;5009726;28;20196;-49
2021/12/11 05:43:41;;;;;;;37.57;5.03;;;-1.30;99.90;;;;;;5009668;28;20178;-49
2021/12/11 05:46:09;;;;;;;29.07;3.97;;;-1.20;99.90;;;;;;5012688;28;20252;-50
2021/12/11 05:48:35;;;;;;;27.43;3.83;;;-1.30;99.90;;;;;;5013420;28;20216;-49
2021/12/11 05:51:05;;;;;;;36.50;4.90;;;-1.30;99.90;;;;;;5013152;28;20307;-49
2021/12/11 05:53:32;;;;;;;15.50;2.37;;;;;;;;;;5013050;28;20633;-50
2021/12/11 05:56:01;;;;;;;26.80;3.80;;;-1.20;99.90;;;;;;5013753;28;20185;-49
2021/12/11 05:58:47;;;;;;;40.03;5.20;;;;;;;;;;5013042;28;20216;-49
2021/12/11 06:01:16;;;;;;;31.80;4.27;;;-1.10;99.90;;;;;;5013230;28;20307;-49
2021/12/11 06:03:42;;;;;;;26.03;3.70;;;;;;;;;;5012969;28;20314;-50
2021/12/11 06:06:08;;;;;;;28.53;3.93;;;;;;;;;;5013156;28;20217;-49
2021/12/11 06:08:34;;;;;;;30.73;4.20;;;-1.50;99.90;;;;;;5012491;28;20209;-49
2021/12/11 06:11:00;;;;;;;31.67;4.23;;;-1.40;99.90;;;;;;5013674;28;20181;-50
2021/12/11 06:13:29;;;;;;;41.00;5.40;;;;;;;;;;5012662;28;20213;-49
2021/12/11 06:15:55;;;;;;;32.97;4.47;;;;;;;;;;5012775;28;20638;-50
2021/12/11 06:18:21;;;;;;;34.00;4.67;;;;;;;;;;5012844;28;20721;-50
2021/12/11 06:20:48;;;;;;;38.17;4.97;;;-1.40;99.90;;;;;;5012840;28;20227;-50
2021/12/11 06:23:18;;;;;;;48.50;6.23;;;-1.40;99.90;;;;;;5012779;28;20197;-49
2021/12/11 06:25:44;;;;;;;37.87;5.07;;;;;;;;;;5012833;28;20221;-50
2021/12/11 06:28:10;;;;;;;54.53;6.87;;;-1.40;99.90;;;;;;5012255;28;20244;-49
2021/12/11 06:30:38;;;;;;;37.63;4.90;;;-1.50;99.90;;;;;;5012763;28;20228;-49
2021/12/11 06:33:04;;;;;;;45.00;5.80;;;;;;;;;;5012356;28;20221;-50
2021/12/11 06:35:35;;;;;;;37.33;4.93;;;-1.50;99.90;;;;;;5012442;28;20231;-49
2021/12/11 06:38:01;;;;;;;36.03;4.63;;;;;;;;;;5013038;28;20204;-50
2021/12/11 06:40:28;;;;;;;32.80;4.37;;;-1.50;99.90;;;;;;5012344;28;20289;-49
2021/12/11 06:42:54;;;;;;;45.27;5.87;;;-1.50;99.90;;;;;;5012149;28;20296;-49
2021/12/11 06:45:23;;;;;;;65.57;7.93;;;-1.50;99.90;;;;;;5011778;28;20228;-49
2021/12/11 06:47:49;;;;;;;56.50;6.97;;;;;;;;;;5011903;28;20221;-50
2021/12/11 06:50:15;;;;;;;35.47;4.63;;;-1.60;99.90;;;;;;5012730;28;20169;-49
2021/12/11 06:52:41;;;;;;;41.97;5.37;;;-1.40;99.90;;;;;;5012273;28;20227;-49
2021/12/11 06:55:08;;;;;;;42.70;5.53;;;-1.70;99.90;;;;;;5011000;28;20221;-48
2021/12/11 06:57:34;;;;;;;36.87;4.87;;;-1.50;99.90;;;;;;5011516;28;20315;-49
2021/12/11 06:59:59;;;;;;;35.27;4.63;;;-1.80;99.90;;;;;;5011883;28;20251;-48
2021/12/11 07:02:25;;;;;;;39.20;5.07;;;-1.60;99.90;;;;;;5012211;28;20220;-48
2021/12/11 07:04:54;;;;;;;21.27;3.03;;;-1.60;99.90;;;;;;5012313;28;20203;-48
2021/12/11 07:07:24;;;;;;;38.67;5.03;;;;;;;;;;5011552;28;20862;-48
2021/12/11 07:09:51;;;;;;;41.67;5.40;;;-1.50;99.90;;;;;;5011425;28;20255;-48
2021/12/11 07:12:17;;;;;;;51.80;6.60;;;-1.40;99.90;;;;;;5010292;28;20220;-48
2021/12/11 07:14:43;;;;;;;41.00;5.30;;;;;;;;;;5010731;28;20220;-48
2021/12/11 07:17:09;;;;;;;41.63;5.37;;;;;;;;;;4994234;28;20224;-48
2021/12/11 07:19:35;;;;;;;43.83;5.63;;;;;;;;;;5011460;28;20216;-49
2021/12/11 07:22:01;;;;;;;42.43;5.47;;;;;;;;;;5011602;28;20220;-48
2021/12/11 07:24:35;;;;;;;37.53;4.90;;;-1.70;99.90;;;;;;5010694;28;20223;-48
2021/12/11 07:27:02;;;;;;;28.57;3.87;;;;;;;;;;5011477;28;20597;-48
2021/12/11 07:29:30;;;;;;;43.10;5.47;;;-1.50;99.90;;;;;;5011058;28;20213;-48
2021/12/11 07:31:57;;;;;;;35.90;4.70;;;-1.70;99.90;;;;;;5011823;28;20205;-48
2021/12/11 07:34:23;;;;;;;23.90;3.33;;;;;;;;;;5011430;28;20217;-48
2021/12/11 07:36:51;;;;;;;32.00;4.23;;;;;;;;;;5011351;28;20650;-49
2021/12/11 07:39:18;;;;;;;41.70;5.33;;;-1.70;99.90;;;;;;5010978;28;20225;-49
2021/12/11 07:41:47;;;;;;;45.43;5.87;;;-1.70;99.90;;;;;;5011186;28;20294;-49
2021/12/11 07:44:13;;;;;;;42.57;5.60;;;;;;;;;;5011064;28;20597;-49
2021/12/11 07:46:39;;;;;;;52.03;6.63;;;-1.80;99.90;;;;;;5010325;28;20228;-48
2021/12/11 07:49:05;;;;;;;41.70;5.43;;;-1.80;99.90;;;;;;5011124;28;20227;-48
2021/12/11 07:51:32;;;;;;;37.30;4.90;;;-1.10;99.90;;;;;;5010794;28;20701;-48
2021/12/11 07:53:58;;;;;;;34.13;4.43;;;;;;;;;;5010847;28;20245;-48
2021/12/11 07:56:24;;;;;;;38.50;5.07;;;;;;;;;;5010859;28;20221;-48
2021/12/11 07:58:54;;;;;;;50.30;6.30;;;-1.60;99.90;;;;;;5010647;28;20177;-48
2021/12/11 08:01:20;;;;;;;35.63;4.67;;;;;;;;;;5010825;28;20224;-48
2021/12/11 08:03:46;;;;;;;39.20;5.10;;;-1.50;99.90;;;;;;5010765;28;20314;-48
2021/12/11 08:06:13;;;;;;;39.57;5.20;;;-1.50;99.90;;;;;;5010751;28;20236;-48
2021/12/11 08:08:40;;;;;;;38.83;5.00;;;;;;;;;;5010183;28;20216;-47
2021/12/11 08:11:13;;;;;;;52.67;6.67;;;-1.60;99.90;;;;;;4993334;28;20195;-48
2021/12/11 08:13:40;;;;;;;37.13;4.83;;;-1.40;99.90;;;;;;5010553;28;20216;-48
2021/12/11 08:16:06;;;;;;;23.63;3.30;;;;;;;;;;5010488;28;20223;-47
2021/12/11 08:18:32;;;;;;;26.27;3.53;;;;;;;;;;5010603;28;20216;-48
2021/12/11 08:20:58;;;;;;;43.57;5.63;;;;;;;;;;5010410;28;20546;-47
2021/12/11 08:23:25;;;;;;;32.50;4.37;;;;;;;;;;5010277;28;20303;-48
2021/12/11 08:25:52;;;;;;;35.63;4.67;;;-1.20;99.90;;;;;;5011057;28;20235;-48
2021/12/11 08:28:25;;;;;;;58.17;7.30;;;-1.40;99.90;;;;;;5010284;28;20589;-48
2021/12/11 08:30:52;;;;;;;40.50;5.27;;;;;;;;;;5010223;28;20213;-49
2021/12/11 08:33:19;;;;;;;39.00;5.10;;;-1.40;99.90;;;;;;5010367;28;20220;-49
2021/12/11 08:35:46;;;;;;;60.37;7.63;;;-1.10;99.90;;;;;;5009738;28;20289;-50
2021/12/11 08:38:12;;;;;;;57.03;7.17;;;;;;;;;;5009198;28;20211;-48
2021/12/11 08:40:44;;;;;;;48.87;6.30;;;-1.10;99.90;;;;;;5009280;28;20216;-49
2021/12/11 08:43:12;;;;;;;68.47;8.57;;;-1.00;99.90;;;;;;5008621;28;20266;-48
2021/12/11 08:45:48;;;;;;;47.03;6.00;;;-0.90;99.90;;;;;;5009188;28;20247;-49
2021/12/11 08:48:21;;;;;;;47.37;6.10;;;-0.90;99.90;;;;;;5009123;28;20219;-48
2021/12/11 08:50:50;;;;;;;57.63;7.27;;;-1.10;99.90;;;;;;5008978;28;20304;-48
2021/12/11 08:53:17;;;;;;;60.57;7.53;;;-1.20;99.90;;;;;;5009200;28;20247;-48
2021/12/11 08:55:45;;;;;;;33.47;4.43;;;-1.10;99.90;;;;;;5010504;28;20465;-48
2021/12/11 08:58:13;;;;;;;47.50;6.03;;;-1.10;99.90;;;;;;5009626;28;20228;-48
2021/12/11 09:00:47;;;;;;;23.90;3.30;;;-1.20;99.90;;;;;;5009655;28;20301;-48
2021/12/11 09:03:30;;;;;;;41.07;5.37;;;-1.10;99.90;;;;;;5010067;28;20307;-48
2021/12/11 09:06:21;;;;;;;39.03;5.13;;;-1.10;99.90;;;;;;5009992;28;20279;-48
2021/12/11 09:08:57;;;;;;;22.40;3.20;;;-1.00;99.90;;;;;;5009815;28;20224;-48
2021/12/11 09:11:31;;;;;;;38.23;4.90;;;;;;;;;;5010154;28;20216;-48
2021/12/11 09:14:23;;;;;;;46.83;6.07;;;-1.20;99.90;;;;;;5009365;28;20231;-48
2021/12/11 09:16:51;;;;;;;45.77;5.90;;;-1.20;99.90;;;;;;5001300;28;20225;-48
2021/12/11 09:19:18;;;;;;;43.53;5.63;;;-1.30;99.90;;;;;;5009782;28;20569;-48
2021/12/11 09:22:06;;;;;;;36.27;4.77;;;-1.20;99.90;;;;;;5013736;28;20303;-48
2021/12/11 09:24:39;;;;;;;12.97;2.00;;;-1.20;99.90;;;;;;5013380;28;20877;-48
2021/12/11 09:27:11;;;;;;;29.90;4.07;;;-1.40;99.90;;;;;;5013693;28;20282;-48
2021/12/11 09:30:02;;;;;;;51.30;6.37;;;-1.40;99.90;;;;;;5013044;28;20216;-48
2021/12/11 09:32:34;;;;;;;30.27;4.03;;;-1.30;99.90;;;;;;5013395;28;20221;-48
2021/12/11 09:34:59;;;;;;;50.30;6.37;;;-0.70;99.90;;;;;;5013880;28;20224;-48
2021/12/11 09:37:27;;;;;;;110.63;14.13;;;-1.20;99.90;;;;;;5008027;28;20217;-54
2021/12/11 09:39:59;;;;;;;53.43;6.93;;;-1.20;99.90;;;;;;4990330;28;20842;-54
2021/12/11 09:42:24;;;;;;;115.30;14.67;;;;;;;;;;4994134;28;20227;-54
2021/12/11 09:45:03;;;;;;;152.10;19.53;;;1.90;99.90;;;;;;4993208;28;20217;-54
2021/12/11 09:47:31;;;;;;;99.87;12.90;;;;;;;;;;4994683;28;20227;-54
2021/12/11 09:50:09;;;;;;;82.70;10.67;;;-1.00;99.90;;;;;;4993748;28;20562;-55
2021/12/11 09:52:37;;;;;;;81.93;10.40;;;-0.90;99.90;;;;;;4992916;28;20786;-55
2021/12/11 09:55:15;;;;;;;67.17;8.60;;;-1.00;99.90;;;;;;4995703;28;20263;-54
2021/12/11 09:57:46;;;;;;;121.53;15.43;;;-0.90;99.90;;;;;;4988609;28;20240;-54
2021/12/11 10:00:21;;;;;;;63.07;8.37;;;2.80;99.90;;;;;;4991090;28;20228;-54
2021/12/11 10:02:47;;;;;;;46.27;6.30;;;;;;;;;;4987192;28;20229;-54
2021/12/11 10:05:32;;;;;;;67.20;8.63;;;-0.90;99.90;;;;;;4995530;28;20331;-54
2021/12/11 10:11:14;;;;;;;67.90;8.83;;;-0.60;99.90;;;;;;4992737;28;20225;-53
2021/12/11 10:13:52;;;;;;;29.97;4.17;;;-0.70;99.90;;;;;;4987246;28;20236;-54
2021/12/11 10:16:21;;;;;;;72.20;9.53;;;-0.60;99.90;;;;;;4990697;28;20244;-54
2021/12/11 10:18:48;;;;;;;73.30;9.63;;;-0.70;99.90;;;;;;5002148;28;20756;-54
2021/12/11 10:21:14;;;;;;;79.30;10.37;;;;;;;;;;4996594;28;20241;-53
2021/12/11 10:23:42;;;;;;;61.37;8.07;;;-0.80;99.90;;;;;;4991412;28;20251;-54
2021/12/11 10:26:10;;;;;;;57.13;7.80;;;-0.60;99.90;;;;;;4992858;28;20228;-54
2021/12/11 10:28:44;;;;;;;97.17;12.67;;;-0.60;99.90;;;;;;4976382;28;20204;-54
2021/12/11 10:31:17;;;;;;;79.10;10.30;;;-0.60;99.90;;;;;;4991508;28;20224;-54
2021/12/11 10:33:43;;;;;;;42.47;5.70;;;;;;;;;;4996629;28;20272;-54
2021/12/11 10:36:13;;;;;;;91.60;11.80;;;-0.40;99.90;;;;;;4992823;28;20228;-53
2021/12/11 10:38:39;;;;;;;44.60;6.40;;;;;;;;;;4989763;28;20228;-53
2021/12/11 10:41:09;;;;;;;55.90;7.60;;;0.80;99.90;;;;;;4995752;28;20217;-53
2021/12/11 10:43:47;;;;;;;49.60;6.60;;;-0.60;99.90;;;;;;4993150;28;20264;-54
2021/12/11 10:46:15;;;;;;;58.77;7.93;;;-0.40;99.90;;;;;;4991014;28;20217;-54
2021/12/11 10:48:42;;;;;;;84.93;11.23;;;-0.30;99.90;;;;;;4992231;28;20518;-53
2021/12/11 10:51:18;;;;;;;140.03;17.83;;;-0.20;99.90;;;;;;4985684;28;20220;-54
2021/12/11 10:53:46;;;;;;;53.17;7.23;;;-0.40;99.90;;;;;;4987398;28;20296;-54
2021/12/11 10:56:15;;;;;;;98.27;13.03;;;-0.30;99.90;;;;;;4996651;28;20319;-53
2021/12/11 10:58:48;;;;;;;70.87;9.17;;;-0.20;99.90;;;;;;4993224;28;20192;-54
2021/12/11 11:01:34;;;;;;;55.57;7.43;;;-0.20;99.90;;;;;;4995244;28;20224;-54
2021/12/11 11:04:16;;;;;;;78.80;10.67;;;-0.30;99.90;;;;;;4992971;28;20722;-53
2021/12/11 11:06:45;;;;;;;76.93;10.07;;;-0.40;99.90;;;;;;4990791;28;20614;-54
2021/12/11 11:09:12;;;;;;;63.83;8.50;;;-0.20;99.90;;;;;;4996285;28;20212;-55
2021/12/11 11:11:38;;;;;;;64.77;8.37;;;;;;;;;;4991767;28;20276;-55
2021/12/11 11:14:07;;;;;;;62.53;8.33;;;0.20;99.90;;;;;;4989452;28;20185;-55
2021/12/11 11:16:34;;;;;;;49.33;6.57;;;-0.10;99.90;;;;;;4994739;28;20287;-54
2021/12/11 11:19:00;;;;;;;61.80;8.23;;;;;;;;;;4998154;28;20240;-55
2021/12/11 11:21:30;;;;;;;79.17;10.50;;;0.20;99.90;;;;;;4991616;28;20244;-54
2021/12/11 11:23:56;;;;;;;51.10;7.07;;;0.20;99.90;;;;;;4990718;28;20221;-53
2021/12/11 11:26:34;;;;;;;116.43;15.37;;;0.20;99.90;;;;;;4996793;28;20745;-54
2021/12/11 11:29:01;;;;;;;86.53;11.40;;;0.00;99.90;;;;;;4997797;28;20185;-54
2021/12/11 11:31:36;;;;;;;72.27;9.80;;;0.10;99.90;;;;;;4994339;28;20212;-53
2021/12/11 11:34:05;;;;;;;74.23;9.87;;;0.00;99.90;;;;;;4992837;28;20219;-54
2021/12/11 11:36:31;;;;;;;88.13;11.80;;;;;;;;;;4989278;28;20808;-53
2021/12/11 11:38:59;;;;;;;64.40;8.40;;;0.00;99.90;;;;;;4995715;28;20235;-53
2021/12/11 11:41:36;;;;;;;81.43;10.87;;;-0.20;99.90;;;;;;4990271;28;20652;-53
2021/12/11 11:44:03;;;;;;;103.87;13.43;;;0.00;99.90;;;;;;4991767;28;20273;-53
2021/12/11 11:46:29;;;;;;;94.97;12.53;;;;;;;;;;4997576;28;20352;-53
2021/12/11 11:49:00;;;;;;;82.47;10.70;;;-0.10;99.90;;;;;;4991195;28;20270;-53
2021/12/11 11:51:40;;;;;;;65.00;8.50;;;-0.20;99.90;;;;;;4991315;28;20232;-53
2021/12/11 11:54:06;;;;;;;51.23;7.10;;;;;;;;;;4993169;28;20307;-53
2021/12/11 11:56:37;;;;;;;85.40;11.40;;;-0.30;99.90;;;;;;4991532;28;20256;-54
2021/12/11 11:59:05;;;;;;;46.20;6.50;;;0.00;99.90;;;;;;4995316;28;20200;-54
2021/12/11 12:01:44;;;;;;;65.93;8.87;;;0.00;99.90;;;;;;4992598;28;20232;-53
2021/12/11 12:04:15;;;;;;;82.00;10.40;;;0.10;99.90;;;;;;4991645;28;20700;-53
2021/12/11 12:06:42;;;;;;;68.87;9.23;;;;;;;;;;4993486;28;20298;-53
2021/12/11 12:09:11;;;;;;;58.17;7.70;;;0.20;99.90;;;;;;4994485;28;20364;-54
2021/12/11 12:11:38;;;;;;;63.07;8.33;;;-0.10;99.90;;;;;;4989628;28;20225;-54
2021/12/11 12:14:09;;;;;;;49.17;6.80;;;-0.40;99.90;;;;;;4995015;28;20265;-53
2021/12/11 12:16:36;;;;;;;183.57;24.33;;;;;;;;;;4988723;28;20708;-54
2021/12/11 12:19:03;;;;;;;91.83;12.03;;;-0.10;99.90;;;;;;4983832;28;21076;-54
2021/12/11 12:21:30;;;;;;;113.20;14.67;;;;;;;;;;4970135;28;20644;-54
2021/12/11 12:23:56;;;;;;;267.00;35.13;;;;;;;;;;4975633;28;20217;-53
2021/12/11 12:26:25;;;;;;;112.97;14.63;;;-0.30;99.90;;;;;;4978385;28;20233;-53
2021/12/11 12:28:52;;;;;;;63.13;8.33;;;-0.20;99.90;;;;;;4994819;28;20181;-53
2021/12/11 12:31:25;;;;;;;72.10;9.47;;;-0.30;99.90;;;;;;4988719;28;20245;-53
2021/12/11 12:33:51;;;;;;;63.40;8.47;;;;;;;;;;4988596;28;21844;-53
2021/12/11 12:36:18;;;;;;;91.57;11.90;;;-0.20;99.90;;;;;;4991444;28;20232;-53
2021/12/11 12:38:45;;;;;;;76.57;10.33;;;;;;;;;;4990800;28;20217;-53
2021/12/11 12:41:16;;;;;;;82.20;10.53;;;-0.40;99.90;;;;;;4992338;28;20177;-54
2021/12/11 12:44:16;;;;;;;54.57;7.37;;;-0.30;99.90;;;;;;4992800;28;20184;-53
2021/12/11 12:47:09;;;;;;;129.33;16.30;;;-0.30;99.90;;;;;;4987746;28;20306;-54
2021/12/11 12:49:38;;;;;;;64.97;8.63;;;-0.30;99.90;;;;;;4980976;28;20221;-53
2021/12/11 12:52:09;;;;;;;77.63;10.13;;;-0.40;99.90;;;;;;4985313;28;20220;-54
2021/12/11 12:54:36;;;;;;;94.17;12.27;;;-0.30;99.90;;;;;;4988637;28;20213;-53
2021/12/11 12:57:14;;;;;;;51.63;6.73;;;-0.50;99.90;;;;;;4988291;28;20645;-53
2021/12/11 12:59:59;;;;;;;92.17;11.90;;;-0.50;99.90;;;;;;4987690;28;20737;-53
2021/12/11 13:02:28;;;;;;;106.17;13.27;;;-0.50;99.90;;;;;;4985192;28;20225;-53
2021/12/11 13:05:00;;;;;;;131.87;16.83;;;-0.50;99.90;;;;;;4981580;28;20192;-53
2021/12/11 13:07:26;;;;;;;68.87;8.93;;;;;;;;;;4986442;28;20221;-54
2021/12/11 13:09:56;;;;;;;129.50;16.30;;;-0.40;99.90;;;;;;4990697;28;20556;-53
2021/12/11 13:12:21;;;;;;;75.47;9.63;;;;;;;;;;4983588;28;20228;-54
2021/12/11 13:14:48;;;;;;;180.37;22.83;;;-0.30;99.90;;;;;;4981597;28;20308;-53
2021/12/11 13:17:19;;;;;;;68.50;9.33;;;-0.30;99.90;;;;;;4983702;28;20216;-54
2021/12/11 13:19:51;;;;;;;135.77;17.87;;;-0.30;99.90;;;;;;4982764;28;20181;-53
2021/12/11 13:24:55;;;;;;;298.90;36.37;;;;;;;;;;3340449;26;20235;-71
2021/12/11 13:27:23;;;;;;;61.23;7.67;;;-0.30;99.90;;;;;;4998959;28;20199;-71
2021/12/11 13:29:53;;;;;;;72.43;8.93;;;-0.60;99.90;;;;;;5012346;28;20196;-74
2021/12/11 13:32:23;;;;;;;39.97;5.23;;;-0.30;99.90;;;;;;5002907;28;20184;-74
2021/12/11 13:34:50;;;;;;;67.77;8.50;;;;;;;;;;5004159;28;20588;-72